Time;durP1;ratioP1;P1;durP2;ratioP2;P2;SDS_P1;SDS_P2;PMS_P1;PMS_P2;Temp;Humidity;BMP_temperature;BMP_pressure;BME280_temperature;BME280_humidity;BME280_pressure;Samples;Min_cycle;Max_cycle;Signal;HPM_P1;HPM_P2
2023/03/29 00:01:29;;;;;;;10.55;6.57;;;9.10;99.90;;;;;;5011083;28;20057;-57
2023/03/29 00:04:03;;;;;;;13.27;7.15;;;9.10;99.90;;;;;;5010062;28;20049;-58
2023/03/29 00:06:30;;;;;;;12.45;7.47;;;9.10;99.90;;;;;;5015419;28;20045;-58
2023/03/29 00:08:56;;;;;;;12.05;7.68;;;9.10;99.90;;;;;;5010121;28;20080;-59
2023/03/29 00:11:24;;;;;;;9.60;6.40;;;9.10;99.90;;;;;;5010711;28;20048;-58
2023/03/29 00:13:51;;;;;;;13.32;6.50;;;9.20;99.90;;;;;;5007071;28;20052;-54
2023/03/29 00:16:18;;;;;;;15.10;6.50;;;9.10;99.90;;;;;;5006792;28;20132;-56
2023/03/29 00:18:44;;;;;;;16.10;7.30;;;9.20;99.90;;;;;;5010100;28;20078;-55
2023/03/29 00:21:11;;;;;;;13.48;7.43;;;9.20;99.90;;;;;;5010021;28;20056;-56
2023/03/29 00:23:38;;;;;;;11.15;6.60;;;9.20;99.90;;;;;;5009855;28;20184;-57
2023/03/29 00:26:06;;;;;;;15.30;6.30;;;9.20;99.90;;;;;;5010129;28;20041;-58
2023/03/29 00:28:34;;;;;;;12.98;7.00;;;9.20;99.90;;;;;;5010506;28;20054;-59
2023/03/29 00:31:05;;;;;;;12.20;6.35;;;9.20;99.90;;;;;;5009769;28;20081;-58
2023/03/29 00:33:32;;;;;;;13.82;7.00;;;9.20;99.90;;;;;;4997828;28;20054;-59
2023/03/29 00:35:59;;;;;;;11.30;6.30;;;9.20;99.90;;;;;;5007389;28;20037;-56
2023/03/29 00:38:26;;;;;;;13.13;7.35;;;9.30;99.90;;;;;;4663573;28;10000215;-58
2023/03/29 00:40:53;;;;;;;10.95;5.78;;;9.30;99.90;;;;;;5007747;28;20117;-56
2023/03/29 00:43:19;;;;;;;12.15;5.88;;;9.30;99.90;;;;;;5010265;28;20053;-57
2023/03/29 00:45:46;;;;;;;12.70;7.20;;;9.30;99.90;;;;;;5006607;28;20042;-57
2023/03/29 00:48:21;;;;;;;11.23;5.90;;;9.30;99.90;;;;;;5006268;28;20052;-57
2023/03/29 00:51:02;;;;;;;10.90;5.85;;;9.30;99.90;;;;;;5004973;28;20053;-56
2023/03/29 00:53:41;;;;;;;10.65;5.75;;;9.30;99.90;;;;;;5007124;28;20052;-57
2023/03/29 00:56:13;;;;;;;10.90;5.57;;;9.30;99.90;;;;;;5003898;28;20057;-54
2023/03/29 00:58:59;;;;;;;9.88;5.38;;;9.30;99.90;;;;;;4997668;28;20121;-57
2023/03/29 01:01:41;;;;;;;7.18;4.82;;;9.30;99.90;;;;;;5005438;28;20056;-58
2023/03/29 01:04:18;;;;;;;9.82;5.70;;;9.40;99.90;;;;;;4998101;28;20049;-58
2023/03/29 01:06:57;;;;;;;10.27;5.25;;;9.40;99.90;;;;;;5011041;28;20042;-58
2023/03/29 01:09:25;;;;;;;11.73;5.78;;;9.40;99.90;;;;;;4993993;28;20050;-58
2023/03/29 01:11:54;;;;;;;9.25;5.20;;;9.40;99.90;;;;;;5004643;28;20564;-59
2023/03/29 01:14:47;;;;;;;12.48;5.40;;;9.40;99.90;;;;;;4992614;28;20531;-58
2023/03/29 01:17:14;;;;;;;10.23;5.70;;;9.40;99.90;;;;;;5005979;28;20045;-57
2023/03/29 01:19:44;;;;;;;12.77;5.25;;;9.40;99.90;;;;;;5009022;28;20125;-57
2023/03/29 01:22:24;;;;;;;9.63;5.90;;;9.40;99.90;;;;;;5003209;28;20068;-57
2023/03/29 01:25:21;;;;;;;11.23;6.25;;;9.40;99.90;;;;;;4999158;28;20077;-57
2023/03/29 01:28:01;;;;;;;11.43;4.82;;;9.50;99.90;;;;;;4998585;28;20049;-56
2023/03/29 01:30:31;;;;;;;10.70;5.97;;;9.50;99.90;;;;;;5009320;28;20042;-57
2023/03/29 01:33:01;;;;;;;10.43;6.20;;;9.50;99.90;;;;;;4998997;28;20056;-57
2023/03/29 01:35:44;;;;;;;10.25;5.28;;;9.50;99.90;;;;;;4996232;28;20113;-56
2023/03/29 01:38:17;;;;;;;10.45;5.50;;;9.50;99.90;;;;;;4998071;28;20042;-57
2023/03/29 01:40:44;;;;;;;7.30;4.82;;;9.50;99.90;;;;;;5009478;28;20474;-57
2023/03/29 01:43:18;;;;;;;11.23;4.85;;;9.50;99.90;;;;;;5007725;28;20508;-57
2023/03/29 01:45:50;;;;;;;7.82;5.07;;;9.50;99.90;;;;;;5000007;28;20053;-58
2023/03/29 01:48:30;;;;;;;10.63;5.70;;;9.60;99.90;;;;;;4998803;28;20046;-57
2023/03/29 01:51:06;;;;;;;7.30;5.30;;;9.60;99.90;;;;;;4998216;28;20050;-57
2023/03/29 01:53:37;;;;;;;8.98;4.80;;;9.60;99.90;;;;;;4998249;28;20074;-58
2023/03/29 01:56:07;;;;;;;9.43;5.35;;;9.50;99.90;;;;;;4997580;28;20138;-58
2023/03/29 01:58:37;;;;;;;7.53;4.35;;;9.60;99.90;;;;;;4995324;28;20173;-58
2023/03/29 02:01:08;;;;;;;10.57;5.47;;;9.60;99.90;;;;;;4993058;28;20046;-58
2023/03/29 02:03:41;;;;;;;10.13;5.40;;;9.50;99.90;;;;;;5010421;28;20108;-56
2023/03/29 02:06:10;;;;;;;6.93;4.65;;;9.50;99.90;;;;;;4996609;28;20076;-56
2023/03/29 02:08:38;;;;;;;9.80;5.05;;;9.60;99.90;;;;;;5002819;28;20089;-58
2023/03/29 02:11:06;;;;;;;10.52;4.97;;;9.60;99.90;;;;;;4996279;28;20052;-58
2023/03/29 02:13:34;;;;;;;7.57;4.80;;;9.60;99.90;;;;;;5007767;28;20046;-58
2023/03/29 02:16:03;;;;;;;6.32;3.95;;;9.60;99.90;;;;;;4999166;28;20050;-58
2023/03/29 02:18:30;;;;;;;9.20;5.13;;;9.60;99.90;;;;;;4992096;28;20065;-58
2023/03/29 02:20:57;;;;;;;8.73;6.05;;;9.50;99.90;;;;;;4994543;28;20046;-59
2023/03/29 02:23:32;;;;;;;6.93;4.25;;;9.50;99.90;;;;;;5005132;28;20497;-59
2023/03/29 02:26:00;;;;;;;5.85;4.40;;;9.40;99.90;;;;;;5001216;28;20077;-58
2023/03/29 02:28:26;;;;;;;9.07;5.18;;;9.40;99.90;;;;;;5005416;28;20497;-58
2023/03/29 02:31:09;;;;;;;9.77;4.45;;;9.40;99.90;;;;;;5000971;28;20049;-58
2023/03/29 02:34:01;;;;;;;6.97;4.32;;;9.40;99.90;;;;;;4999628;28;20516;-59
2023/03/29 02:36:32;;;;;;;8.50;4.10;;;9.40;99.90;;;;;;4993383;28;20062;-57
2023/03/29 02:39:00;;;;;;;7.60;4.88;;;9.40;99.90;;;;;;5004344;28;20074;-59
2023/03/29 02:41:27;;;;;;;6.55;4.43;;;9.50;99.90;;;;;;5000968;28;20397;-58
2023/03/29 02:43:55;;;;;;;7.40;4.63;;;9.60;99.90;;;;;;5005065;28;20678;-59
2023/03/29 02:46:22;;;;;;;9.40;4.60;;;9.50;99.90;;;;;;4996701;28;20075;-57
2023/03/29 02:48:49;;;;;;;12.43;6.28;;;9.50;99.90;;;;;;5004301;28;20046;-59
2023/03/29 02:51:24;;;;;;;9.73;4.85;;;9.50;99.90;;;;;;4999289;28;20412;-58
2023/03/29 02:54:08;;;;;;;7.47;4.45;;;9.50;99.90;;;;;;4992381;28;20081;-59
2023/03/29 02:56:42;;;;;;;10.30;4.95;;;9.50;99.90;;;;;;4984397;28;20494;-57
2023/03/29 02:59:10;;;;;;;6.57;4.70;;;9.60;99.90;;;;;;5012113;28;20049;-58
2023/03/29 03:01:38;;;;;;;9.02;5.05;;;9.60;99.90;;;;;;5013840;28;20049;-57
2023/03/29 03:04:05;;;;;;;7.90;5.07;;;9.60;99.90;;;;;;5002586;28;20074;-57
2023/03/29 03:06:31;;;;;;;7.35;5.35;;;9.60;99.90;;;;;;5013605;28;20042;-60
2023/03/29 03:08:58;;;;;;;13.48;6.03;;;9.60;99.90;;;;;;5013887;28;20042;-59
2023/03/29 03:11:25;;;;;;;8.40;5.35;;;9.60;99.90;;;;;;5013071;28;20133;-58
2023/03/29 03:13:52;;;;;;;8.38;5.47;;;9.60;99.90;;;;;;5013356;28;20041;-58
2023/03/29 03:16:19;;;;;;;8.40;4.63;;;9.60;99.90;;;;;;5012192;28;20042;-58
2023/03/29 03:18:47;;;;;;;10.75;5.75;;;9.60;99.90;;;;;;5012308;28;20532;-58
2023/03/29 03:21:14;;;;;;;11.95;5.82;;;9.60;99.90;;;;;;5011055;28;20054;-58
2023/03/29 03:23:41;;;;;;;9.55;6.38;;;9.70;99.90;;;;;;5011904;28;20481;-59
2023/03/29 03:26:07;;;;;;;9.27;5.47;;;9.60;99.90;;;;;;5012163;28;20507;-58
2023/03/29 03:28:34;;;;;;;10.85;6.80;;;9.70;99.90;;;;;;5011824;28;20128;-57
2023/03/29 03:31:01;;;;;;;7.95;6.00;;;9.70;99.90;;;;;;5010833;28;20125;-58
2023/03/29 03:33:28;;;;;;;10.45;6.25;;;9.70;99.90;;;;;;5007278;28;20061;-56
2023/03/29 03:35:55;;;;;;;10.98;6.57;;;9.70;99.90;;;;;;5007579;28;20146;-59
2023/03/29 03:38:22;;;;;;;10.23;6.50;;;9.80;99.90;;;;;;5011765;28;20108;-57
2023/03/29 03:40:57;;;;;;;10.95;6.45;;;9.70;99.90;;;;;;5010816;28;20053;-57
2023/03/29 03:43:23;;;;;;;10.10;6.80;;;9.80;99.90;;;;;;5003949;28;20551;-57
2023/03/29 03:45:50;;;;;;;10.18;7.40;;;9.80;99.90;;;;;;5010629;28;20640;-58
2023/03/29 03:48:17;;;;;;;13.35;6.88;;;9.80;99.90;;;;;;4996401;28;20105;-59
2023/03/29 03:51:03;;;;;;;11.15;7.43;;;9.80;99.90;;;;;;5008291;28;20551;-59
2023/03/29 03:53:31;;;;;;;13.20;7.18;;;9.80;99.90;;;;;;5003430;28;20520;-58
2023/03/29 03:55:57;;;;;;;11.88;7.25;;;9.70;99.90;;;;;;5010823;28;20136;-60
2023/03/29 03:58:25;;;;;;;16.88;7.47;;;9.70;99.90;;;;;;5010512;28;20558;-58
2023/03/29 04:00:53;;;;;;;11.73;6.68;;;9.70;99.90;;;;;;4995490;28;20106;-58
2023/03/29 04:03:20;;;;;;;10.35;6.30;;;9.80;99.90;;;;;;5006701;28;20122;-58
2023/03/29 04:05:47;;;;;;;10.43;5.75;;;9.80;99.90;;;;;;5007402;28;20085;-58
2023/03/29 04:08:14;;;;;;;13.02;5.88;;;9.80;99.90;;;;;;5010097;28;20086;-59
2023/03/29 04:10:41;;;;;;;12.63;6.22;;;9.80;99.90;;;;;;5008031;28;20535;-59
2023/03/29 04:13:08;;;;;;;11.82;5.80;;;9.80;99.90;;;;;;5007321;28;20041;-57
2023/03/29 04:15:37;;;;;;;10.40;6.00;;;9.80;99.90;;;;;;5010662;28;20068;-58
2023/03/29 04:18:06;;;;;;;13.05;6.35;;;9.80;99.90;;;;;;5010033;28;20046;-57
2023/03/29 04:20:33;;;;;;;11.07;6.05;;;9.80;99.90;;;;;;5010335;28;20128;-59
2023/03/29 04:22:59;;;;;;;9.20;5.20;;;9.80;99.90;;;;;;5009966;28;20050;-59
2023/03/29 04:25:26;;;;;;;10.50;6.25;;;9.80;99.90;;;;;;4998397;28;20096;-58
2023/03/29 04:27:53;;;;;;;9.27;6.13;;;9.80;99.90;;;;;;5010338;28;20042;-56
2023/03/29 04:30:20;;;;;;;11.93;6.63;;;9.80;99.90;;;;;;5010342;28;20072;-57
2023/03/29 04:32:46;;;;;;;10.20;6.25;;;9.80;99.90;;;;;;5009790;28;20049;-58
2023/03/29 04:35:13;;;;;;;12.52;6.45;;;9.80;99.90;;;;;;5009275;28;20058;-58
2023/03/29 04:37:40;;;;;;;12.40;6.97;;;9.80;99.90;;;;;;5009894;28;20053;-58
2023/03/29 04:40:08;;;;;;;11.07;6.68;;;9.80;99.90;;;;;;5009944;28;20050;-58
2023/03/29 04:42:36;;;;;;;10.20;6.15;;;9.80;99.90;;;;;;5010256;28;20049;-58
2023/03/29 04:45:06;;;;;;;12.68;6.93;;;9.80;99.90;;;;;;5009771;28;20137;-57
2023/03/29 04:47:35;;;;;;;13.70;7.72;;;9.80;99.90;;;;;;5009982;28;20108;-58
2023/03/29 04:50:02;;;;;;;12.20;7.35;;;9.80;99.90;;;;;;5009454;28;20237;-58
2023/03/29 04:52:31;;;;;;;11.18;6.68;;;9.80;99.90;;;;;;5009703;28;20053;-58
2023/03/29 04:55:00;;;;;;;10.40;6.07;;;9.80;99.90;;;;;;5009540;28;20045;-58
2023/03/29 04:57:27;;;;;;;12.70;6.88;;;9.80;99.90;;;;;;5010042;28;20133;-57
2023/03/29 04:59:54;;;;;;;16.80;7.65;;;9.80;99.90;;;;;;4999848;28;20060;-54
2023/03/29 05:02:20;;;;;;;12.80;6.95;;;9.80;99.90;;;;;;5005661;28;20042;-58
2023/03/29 05:04:48;;;;;;;11.18;6.53;;;9.80;99.90;;;;;;5005795;28;20053;-58
2023/03/29 05:07:16;;;;;;;10.48;6.68;;;9.80;99.90;;;;;;5010093;28;20464;-56
2023/03/29 05:09:43;;;;;;;15.43;7.30;;;9.80;99.90;;;;;;5009196;28;20042;-58
2023/03/29 05:12:10;;;;;;;11.77;6.53;;;9.80;99.90;;;;;;5009586;28;20133;-57
2023/03/29 05:14:37;;;;;;;8.40;5.75;;;9.80;99.90;;;;;;5008951;28;20060;-57
2023/03/29 05:17:05;;;;;;;13.02;6.75;;;9.70;99.90;;;;;;5009267;28;20382;-58
2023/03/29 05:19:32;;;;;;;16.23;8.05;;;9.70;99.90;;;;;;5008752;28;20056;-59
2023/03/29 05:21:59;;;;;;;15.25;6.78;;;9.70;99.90;;;;;;5009768;28;20468;-58
2023/03/29 05:24:26;;;;;;;14.75;6.78;;;9.70;99.90;;;;;;5006202;28;20042;-57
2023/03/29 05:26:53;;;;;;;10.75;6.05;;;9.70;99.90;;;;;;5009507;28;20073;-58
2023/03/29 05:29:20;;;;;;;13.57;5.70;;;9.70;99.90;;;;;;4995568;28;20041;-57
2023/03/29 05:31:47;;;;;;;12.93;5.57;;;9.60;99.90;;;;;;5009202;28;20054;-58
2023/03/29 05:34:14;;;;;;;12.55;6.25;;;9.70;99.90;;;;;;5005564;28;20065;-58
2023/03/29 05:36:41;;;;;;;12.13;5.50;;;9.60;99.90;;;;;;5008636;28;20057;-59
2023/03/29 05:39:09;;;;;;;13.80;5.28;;;9.60;99.90;;;;;;4994008;28;20536;-59
2023/03/29 05:41:36;;;;;;;10.30;5.20;;;9.50;99.90;;;;;;5006350;28;20056;-62
2023/03/29 05:44:03;;;;;;;12.48;5.53;;;9.60;99.90;;;;;;5003019;28;20464;-55
2023/03/29 05:46:30;;;;;;;13.85;5.80;;;9.60;99.90;;;;;;4996673;28;20125;-58
2023/03/29 05:48:57;;;;;;;10.90;5.63;;;9.60;99.90;;;;;;5001821;28;20124;-59
2023/03/29 05:51:24;;;;;;;13.63;5.95;;;9.60;99.90;;;;;;5003434;28;20489;-57
2023/03/29 05:53:52;;;;;;;14.57;7.63;;;9.60;99.90;;;;;;5008646;28;20084;-56
2023/03/29 05:56:18;;;;;;;18.52;7.22;;;9.60;99.90;;;;;;5008034;28;20136;-59
2023/03/29 05:58:45;;;;;;;9.27;5.68;;;9.60;99.90;;;;;;5008798;28;20087;-56
2023/03/29 06:01:13;;;;;;;15.05;7.13;;;9.60;99.90;;;;;;5004507;28;20081;-57
2023/03/29 06:03:40;;;;;;;13.35;5.85;;;9.60;99.90;;;;;;4989293;28;20125;-56
2023/03/29 06:06:08;;;;;;;12.00;5.32;;;9.60;99.90;;;;;;4999143;28;20052;-59
2023/03/29 06:08:35;;;;;;;16.55;6.20;;;9.60;99.90;;;;;;4987873;28;20048;-59
2023/03/29 06:11:04;;;;;;;13.38;5.82;;;9.60;99.90;;;;;;5008252;28;20050;-59
2023/03/29 06:13:32;;;;;;;11.48;5.03;;;9.70;99.90;;;;;;5007863;28;20588;-59
2023/03/29 06:15:59;;;;;;;7.65;4.95;;;9.60;99.90;;;;;;5008267;28;20065;-59
2023/03/29 06:18:26;;;;;;;11.15;5.45;;;9.60;99.90;;;;;;5006956;28;20045;-60
2023/03/29 06:20:55;;;;;;;11.82;5.35;;;9.70;99.90;;;;;;5005957;28;20060;-63
2023/03/29 06:23:22;;;;;;;12.95;6.28;;;9.70;99.90;;;;;;5006165;28;20536;-59
2023/03/29 06:25:50;;;;;;;10.98;6.07;;;9.70;99.90;;;;;;5007814;28;20088;-61
2023/03/29 06:28:17;;;;;;;8.27;4.68;;;9.80;99.90;;;;;;5006888;28;20132;-60
2023/03/29 06:30:44;;;;;;;14.90;5.53;;;9.80;99.90;;;;;;4992459;28;20056;-60
2023/03/29 06:33:13;;;;;;;10.00;4.40;;;9.90;99.90;;;;;;5005892;28;20116;-59
2023/03/29 06:35:40;;;;;;;11.37;5.50;;;9.90;99.90;;;;;;4656669;28;9999788;-57
2023/03/29 06:38:07;;;;;;;13.05;5.38;;;10.00;99.90;;;;;;5002662;28;20329;-58
2023/03/29 06:40:36;;;;;;;10.23;5.07;;;10.10;99.90;;;;;;5003959;28;20049;-57
2023/03/29 06:43:03;;;;;;;12.80;5.15;;;10.10;99.90;;;;;;5003229;28;20511;-60
2023/03/29 06:45:32;;;;;;;16.65;6.65;;;10.20;99.90;;;;;;5002895;28;20092;-59
2023/03/29 06:47:59;;;;;;;12.73;6.35;;;10.30;99.90;;;;;;5001782;28;20061;-57
2023/03/29 06:50:25;;;;;;;25.70;7.22;;;10.30;99.90;;;;;;5000438;28;20141;-59
2023/03/29 06:52:52;;;;;;;12.95;5.75;;;10.30;99.90;;;;;;5002982;28;20049;-59
2023/03/29 06:55:20;;;;;;;11.73;5.45;;;10.40;99.90;;;;;;5002507;28;20092;-58
2023/03/29 06:57:47;;;;;;;12.63;4.90;;;10.40;99.90;;;;;;5002972;28;20100;-59
2023/03/29 07:00:26;;;;;;;9.40;4.85;;;10.50;99.90;;;;;;5003805;28;20061;-60
2023/03/29 07:02:55;;;;;;;14.00;4.97;;;10.50;99.90;;;;;;5003712;28;20072;-58
2023/03/29 07:05:22;;;;;;;7.32;4.30;;;10.50;99.90;;;;;;5003386;28;20053;-59
2023/03/29 07:07:55;;;;;;;20.17;6.00;;;10.60;99.90;;;;;;5003819;28;20054;-59
2023/03/29 07:10:32;;;;;;;12.40;5.20;;;10.60;99.90;;;;;;5003409;28;20053;-58
2023/03/29 07:12:59;;;;;;;9.70;4.55;;;10.60;99.90;;;;;;5000944;28;20054;-58
2023/03/29 07:15:27;;;;;;;14.48;4.70;;;10.60;99.90;;;;;;5003597;28;20049;-57
2023/03/29 07:17:54;;;;;;;11.18;4.25;;;10.60;99.90;;;;;;5000566;28;20046;-57
2023/03/29 07:20:21;;;;;;;20.80;4.93;;;10.60;99.90;;;;;;4999844;28;20908;-57
2023/03/29 07:22:51;;;;;;;11.98;5.30;;;10.60;99.90;;;;;;4993762;28;20161;-57
2023/03/29 07:25:22;;;;;;;7.57;4.22;;;10.60;99.90;;;;;;5003171;28;20771;-58
2023/03/29 07:27:49;;;;;;;8.88;4.40;;;10.50;99.90;;;;;;5003949;28;20140;-58
2023/03/29 07:30:17;;;;;;;8.32;4.72;;;10.50;99.90;;;;;;5002427;28;20096;-59
2023/03/29 07:32:45;;;;;;;13.45;3.88;;;10.50;99.90;;;;;;4998029;28;20141;-58
2023/03/29 07:35:13;;;;;;;10.27;3.90;;;10.50;99.90;;;;;;5001123;28;20038;-57
2023/03/29 07:37:41;;;;;;;9.50;4.38;;;10.50;99.90;;;;;;4998162;28;20536;-58
2023/03/29 07:40:17;;;;;;;8.98;4.53;;;10.50;99.90;;;;;;5002460;28;20133;-59
2023/03/29 07:42:44;;;;;;;7.90;3.92;;;10.60;99.90;;;;;;4994749;28;20054;-60
2023/03/29 07:45:12;;;;;;;11.82;6.35;;;10.70;99.90;;;;;;5004222;28;20046;-58
2023/03/29 07:47:39;;;;;;;6.85;3.45;;;10.70;99.90;;;;;;5008530;28;20566;-59
2023/03/29 07:50:07;;;;;;;9.43;3.85;;;10.70;99.90;;;;;;5007658;28;20058;-59
2023/03/29 07:52:35;;;;;;;6.25;4.28;;;10.80;99.90;;;;;;5008396;28;20047;-58
2023/03/29 07:55:01;;;;;;;5.63;3.20;;;10.80;99.90;;;;;;5001024;28;20052;-57
2023/03/29 07:57:29;;;;;;;7.00;2.85;;;10.80;99.90;;;;;;4997773;28;20053;-58
2023/03/29 07:59:56;;;;;;;3.63;2.35;;;10.90;99.90;;;;;;5006474;28;20077;-61
2023/03/29 08:02:23;;;;;;;4.22;2.40;;;10.90;99.90;;;;;;5006166;28;20235;-58
2023/03/29 08:04:51;;;;;;;8.70;2.67;;;10.90;99.90;;;;;;5005119;28;20125;-57
2023/03/29 08:07:18;;;;;;;5.88;2.22;;;11.00;99.90;;;;;;4998330;28;20124;-62
2023/03/29 08:09:45;;;;;;;5.15;2.40;;;11.00;99.90;;;;;;5003274;28;20042;-59
2023/03/29 08:12:12;;;;;;;9.15;3.13;;;11.10;99.90;;;;;;5004888;28;21094;-60
2023/03/29 08:14:39;;;;;;;8.50;3.30;;;11.20;99.90;;;;;;5005239;28;20054;-59
2023/03/29 08:17:05;;;;;;;6.05;2.55;;;11.20;99.90;;;;;;5007262;28;20050;-60
2023/03/29 08:19:33;;;;;;;6.97;2.55;;;11.20;99.90;;;;;;5008797;28;20567;-60
2023/03/29 08:21:59;;;;;;;6.13;2.25;;;11.30;99.90;;;;;;5008292;28;20212;-61
2023/03/29 08:24:26;;;;;;;5.75;2.42;;;11.30;99.90;;;;;;5008308;28;20497;-60
2023/03/29 08:26:53;;;;;;;6.28;3.25;;;11.30;99.90;;;;;;5008182;28;20069;-62
2023/03/29 08:29:21;;;;;;;6.57;3.00;;;11.40;99.90;;;;;;5009169;28;20046;-58
2023/03/29 08:31:48;;;;;;;6.57;2.55;;;11.30;99.90;;;;;;5008483;28;20049;-60
2023/03/29 08:34:15;;;;;;;5.45;2.75;;;11.40;99.90;;;;;;5008956;28;20436;-61
2023/03/29 08:36:41;;;;;;;5.97;2.85;;;11.40;99.90;;;;;;5006031;28;20081;-59
2023/03/29 08:39:08;;;;;;;6.00;3.00;;;11.30;99.90;;;;;;4992840;28;20132;-59
2023/03/29 08:41:56;;;;;;;4.13;2.63;;;11.30;99.90;;;;;;5001593;28;20137;-59
2023/03/29 08:44:44;;;;;;;8.55;3.03;;;11.30;99.90;;;;;;5007698;28;20092;-59
2023/03/29 08:47:45;;;;;;;6.78;3.15;;;11.30;99.90;;;;;;5001732;28;20046;-59
2023/03/29 08:50:12;;;;;;;11.80;3.20;;;11.30;99.90;;;;;;5001679;28;20092;-58
2023/03/29 08:52:41;;;;;;;10.07;3.92;;;11.30;99.90;;;;;;5006730;28;20508;-59
2023/03/29 08:55:16;;;;;;;8.80;3.38;;;11.30;99.90;;;;;;4996217;28;20100;-59
2023/03/29 08:57:45;;;;;;;7.43;3.55;;;11.30;99.90;;;;;;4995447;28;20081;-59
2023/03/29 09:00:33;;;;;;;4.95;2.78;;;11.30;99.90;;;;;;4996675;28;20046;-59
2023/03/29 09:03:01;;;;;;;6.63;3.00;;;11.30;99.90;;;;;;4981312;28;20096;-61
2023/03/29 09:05:39;;;;;;;7.10;2.70;;;11.40;99.90;;;;;;4996185;28;20054;-60
2023/03/29 09:08:15;;;;;;;4.20;2.90;;;11.40;99.90;;;;;;4995967;28;20050;-58
2023/03/29 09:11:10;;;;;;;4.28;2.72;;;11.40;99.90;;;;;;5008070;28;20081;-57
2023/03/29 09:14:02;;;;;;;7.07;3.20;;;11.40;99.90;;;;;;5001694;28;20054;-58
2023/03/29 09:16:56;;;;;;;6.18;2.50;;;11.50;99.90;;;;;;5008569;28;20664;-59
2023/03/29 09:19:33;;;;;;;3.03;2.20;;;11.50;99.90;;;;;;5004562;28;20053;-58
2023/03/29 09:22:00;;;;;;;7.43;2.85;;;11.60;99.90;;;;;;5007933;28;20073;-62
2023/03/29 09:24:48;;;;;;;5.78;2.28;;;11.60;99.90;;;;;;4993947;28;20093;-58
2023/03/29 09:27:25;;;;;;;3.92;1.48;;;11.70;99.90;;;;;;4991913;28;20134;-57
2023/03/29 09:30:05;;;;;;;4.00;2.17;;;11.70;99.90;;;;;;4994328;28;20054;-59
2023/03/29 09:32:42;;;;;;;4.55;1.48;;;11.70;99.90;;;;;;4993287;28;20072;-60
2023/03/29 09:35:18;;;;;;;4.07;1.45;;;11.70;99.90;;;;;;5000349;28;20061;-59
2023/03/29 09:37:46;;;;;;;2.03;1.15;;;11.80;99.90;;;;;;4995464;28;20444;-58
2023/03/29 09:40:27;;;;;;;4.32;1.00;;;11.80;99.90;;;;;;5007939;28;20056;-58
2023/03/29 09:42:53;;;;;;;8.65;1.00;;;11.80;99.90;;;;;;4995284;28;20138;-60
2023/03/29 09:45:20;;;;;;;2.15;0.88;;;11.80;99.90;;;;;;5000922;28;20045;-59
2023/03/29 09:48:06;;;;;;;0.95;0.65;;;11.90;99.90;;;;;;5007687;28;20125;-59
2023/03/29 09:50:38;;;;;;;4.10;2.50;;;11.90;99.90;;;;;;4995492;28;20143;-58
2023/03/29 09:53:06;;;;;;;2.03;0.80;;;12.00;99.90;;;;;;5004843;28;20048;-63
2023/03/29 09:55:35;;;;;;;1.30;0.73;;;12.00;99.90;;;;;;4998217;28;20048;-59
2023/03/29 09:58:26;;;;;;;2.42;1.80;;;12.00;99.90;;;;;;4992313;28;20050;-58
2023/03/29 10:00:56;;;;;;;2.70;1.02;;;12.00;99.90;;;;;;5005491;28;20202;-58
2023/03/29 10:03:25;;;;;;;4.03;2.38;;;12.10;99.90;;;;;;5007174;28;20052;-58
2023/03/29 10:05:53;;;;;;;2.70;1.20;;;12.10;99.90;;;;;;5007518;28;20132;-59
2023/03/29 10:08:28;;;;;;;1.17;0.93;;;12.20;99.90;;;;;;4992379;28;20406;-60
2023/03/29 10:10:59;;;;;;;1.75;0.88;;;12.20;99.90;;;;;;4999290;28;20073;-58
2023/03/29 10:13:28;;;;;;;2.85;0.73;;;12.30;99.90;;;;;;5007704;28;20053;-61
2023/03/29 10:16:04;;;;;;;3.30;1.00;;;12.30;99.90;;;;;;4653912;28;9999838;-60
2023/03/29 10:18:31;;;;;;;2.47;1.17;;;12.30;99.90;;;;;;5001350;28;20049;-59
2023/03/29 10:20:59;;;;;;;3.85;1.55;;;12.30;99.90;;;;;;5006925;28;20130;-61
2023/03/29 10:23:35;;;;;;;8.20;1.38;;;12.30;99.90;;;;;;4992294;28;20070;-59
2023/03/29 10:26:03;;;;;;;3.53;1.67;;;12.40;99.90;;;;;;4995837;28;20133;-59
2023/03/29 10:28:30;;;;;;;2.40;1.48;;;12.40;99.90;;;;;;4999651;28;20509;-59
2023/03/29 10:30:58;;;;;;;3.75;2.10;;;12.40;99.90;;;;;;4996788;28;20066;-59
2023/03/29 10:33:32;;;;;;;4.38;1.70;;;12.40;99.90;;;;;;4994331;28;20049;-59
2023/03/29 10:35:59;;;;;;;4.07;1.88;;;12.50;99.90;;;;;;4994788;28;20108;-60
2023/03/29 10:38:27;;;;;;;4.75;1.77;;;12.40;99.90;;;;;;4996638;28;20133;-59
2023/03/29 10:41:01;;;;;;;4.13;2.03;;;12.40;99.90;;;;;;4993486;28;20125;-59
2023/03/29 10:43:34;;;;;;;4.90;2.15;;;12.40;99.90;;;;;;4986820;28;20453;-57
2023/03/29 10:46:11;;;;;;;7.43;2.80;;;12.30;99.90;;;;;;5009984;28;20046;-60
2023/03/29 10:48:38;;;;;;;4.70;2.40;;;12.30;99.90;;;;;;4997184;28;20509;-59
2023/03/29 10:51:06;;;;;;;4.47;2.38;;;12.30;99.90;;;;;;5000390;28;20060;-59
2023/03/29 10:53:36;;;;;;;5.22;2.25;;;12.30;99.90;;;;;;5007131;28;20100;-58
2023/03/29 10:56:09;;;;;;;4.95;2.15;;;12.30;99.90;;;;;;5002468;28;20056;-58
2023/03/29 10:58:38;;;;;;;3.70;2.38;;;12.30;99.90;;;;;;5003983;28;20511;-59
2023/03/29 11:01:04;;;;;;;6.50;2.63;;;12.30;99.90;;;;;;5006562;28;20515;-62
2023/03/29 11:03:50;;;;;;;9.15;3.28;;;12.30;99.90;;;;;;4998318;28;20508;-60
2023/03/29 11:06:37;;;;;;;10.77;4.30;;;12.20;99.90;;;;;;4998827;28;20057;-61
2023/03/29 11:09:24;;;;;;;7.72;2.47;;;12.20;99.90;;;;;;5006553;28;20125;-59
2023/03/29 11:12:06;;;;;;;4.25;2.42;;;12.20;99.90;;;;;;5002940;28;20061;-58
2023/03/29 11:14:48;;;;;;;8.68;2.55;;;12.30;99.90;;;;;;4991661;28;20078;-59
2023/03/29 11:17:38;;;;;;;14.18;3.20;;;12.30;99.90;;;;;;5005447;28;20087;-60
2023/03/29 11:20:28;;;;;;;9.10;3.58;;;12.30;99.90;;;;;;4992179;28;20046;-59
2023/03/29 11:23:08;;;;;;;11.45;3.92;;;12.40;99.90;;;;;;5010017;28;20128;-59
2023/03/29 11:25:57;;;;;;;11.77;4.00;;;12.40;99.90;;;;;;4995410;28;20046;-58
2023/03/29 11:28:36;;;;;;;12.00;4.32;;;12.40;99.90;;;;;;5009202;28;20373;-59
2023/03/29 11:31:25;;;;;;;10.73;3.45;;;12.40;99.90;;;;;;4996248;28;20077;-59
2023/03/29 11:34:01;;;;;;;9.85;4.15;;;12.50;99.90;;;;;;5006945;28;20057;-59
2023/03/29 11:36:33;;;;;;;7.05;3.42;;;12.60;99.90;;;;;;5009811;28;20469;-60
2023/03/29 11:39:27;;;;;;;9.75;3.85;;;12.60;99.90;;;;;;5010191;28;20054;-57
2023/03/29 11:42:03;;;;;;;11.00;3.28;;;12.70;99.90;;;;;;4995263;28;20058;-62
2023/03/29 11:44:40;;;;;;;9.20;3.60;;;12.80;99.90;;;;;;5008866;28;20328;-59
2023/03/29 11:47:12;;;;;;;12.20;2.90;;;12.90;99.90;;;;;;4998368;28;20069;-59
2023/03/29 11:49:48;;;;;;;17.98;3.65;;;13.00;99.90;;;;;;5003200;28;20052;-60
2023/03/29 11:52:21;;;;;;;20.02;5.97;;;13.10;99.90;;;;;;5010470;28;20046;-60
2023/03/29 11:54:49;;;;;;;13.10;3.33;;;13.10;99.90;;;;;;4994392;28;20078;-58
2023/03/29 11:57:30;;;;;;;11.20;3.10;;;13.20;99.90;;;;;;4657458;28;10000480;-60
2023/03/29 12:00:21;;;;;;;12.82;3.60;;;13.20;99.90;;;;;;5002149;28;20056;-60
2023/03/29 12:02:58;;;;;;;16.65;3.60;;;13.20;99.90;;;;;;4964619;28;20056;-59
2023/03/29 12:05:55;;;;;;;9.57;3.75;;;13.10;99.90;;;;;;5005077;28;20527;-59
2023/03/29 12:08:31;;;;;;;12.85;3.58;;;13.20;99.90;;;;;;5005225;28;20584;-59
2023/03/29 12:11:20;;;;;;;9.43;2.95;;;13.20;99.90;;;;;;5001038;28;20088;-58
2023/03/29 12:14:03;;;;;;;10.60;2.90;;;13.20;99.90;;;;;;5006104;28;20557;-59
2023/03/29 12:16:32;;;;;;;14.68;3.70;;;13.20;99.90;;;;;;4994581;28;20172;-59
2023/03/29 12:19:07;;;;;;;15.10;3.78;;;13.20;99.90;;;;;;5000025;28;20585;-58
2023/03/29 12:21:34;;;;;;;17.83;4.03;;;13.20;99.90;;;;;;4992936;28;20504;-58
2023/03/29 12:24:01;;;;;;;16.20;4.03;;;13.30;99.90;;;;;;4999437;28;20053;-58
2023/03/29 12:27:02;;;;;;;14.65;4.45;;;13.40;99.90;;;;;;4996424;28;20086;-60
2023/03/29 12:29:28;;;;;;;17.00;3.03;;;13.60;99.90;;;;;;5002378;28;20049;-60
2023/03/29 12:32:11;;;;;;;14.88;3.28;;;13.70;99.90;;;;;;5006661;28;20136;-61
2023/03/29 12:35:15;;;;;;;18.85;3.40;;;13.80;99.90;;;;;;5002460;28;20054;-60
2023/03/29 12:37:42;;;;;;;22.45;3.63;;;13.80;99.90;;;;;;5000887;28;20049;-59
2023/03/29 12:40:16;;;;;;;12.60;2.95;;;13.80;99.90;;;;;;5003607;28;20047;-61
2023/03/29 12:43:04;;;;;;;26.00;3.58;;;13.80;99.90;;;;;;4996504;28;20046;-58
2023/03/29 12:45:36;;;;;;;10.60;2.70;;;13.80;99.90;;;;;;5005651;28;20144;-59
2023/03/29 12:48:03;;;;;;;9.15;2.50;;;13.80;99.90;;;;;;4992741;28;20056;-59
2023/03/29 12:50:33;;;;;;;15.70;2.97;;;13.80;99.90;;;;;;5004020;28;20054;-58
2023/03/29 12:53:16;;;;;;;20.27;2.92;;;13.90;99.90;;;;;;4994356;28;20112;-59
2023/03/29 12:55:43;;;;;;;15.05;4.05;;;14.00;99.90;;;;;;4994229;28;20510;-60
2023/03/29 12:58:36;;;;;;;14.02;2.53;;;14.10;99.90;;;;;;5005634;28;20057;-61
2023/03/29 13:01:03;;;;;;;9.52;2.25;;;14.30;99.90;;;;;;5004984;28;20081;-60
2023/03/29 13:03:41;;;;;;;13.45;3.03;;;14.30;99.90;;;;;;5006644;28;20168;-60
2023/03/29 13:06:09;;;;;;;14.70;2.85;;;14.40;99.90;;;;;;5005717;28;20631;-60
2023/03/29 13:08:42;;;;;;;14.25;2.90;;;14.50;99.90;;;;;;5005602;28;20089;-60